Calico, South Dakota
Current Conditions -  °F | °C
As of 3:52 AM on Wednesday 26 Nov 2014 (Local Time) from KIEN Reporting Station
Overcast Overcast  
Wind Chill: 15°   Ceiling: 1800
Heat Index: 26°   Visibility: 10mi
Dew Point: 20°   Wind: 13mph
Humidity: 78%   Direction: 360°N
Pressure: 30.17"   Gusts: 23mph
Location:  43.3266°N, 102.736°W
Report Text: KIEN 261052Z AUTO 36011G20KT 10SM BKN018 OVC026 M03/M07 A3017 RMK AO2 SLP243 T10331067
Loading
Personal Weather Stations






























Interactive Weather Map New forecast layout! Learn more

10-Day Weather Forecast

Advertisements
Track Severe Weather on mobile